createdAt,value
2023-01-23T09:38:38.193Z,9.85
2023-01-23T09:41:23.435Z,10.50
2023-01-23T09:44:07.595Z,12.20
2023-01-23T10:02:26.479Z,7.30
2023-01-23T10:04:55.103Z,7.72
2023-01-23T10:08:41.171Z,7.35
2023-01-23T11:25:56.324Z,6.47
2023-01-23T11:28:48.191Z,6.22
2023-01-23T11:31:27.321Z,5.55
2023-01-23T11:40:34.167Z,7.75
2023-01-23T11:59:05.772Z,7.40
2023-01-23T12:02:20.451Z,11.40
2023-01-23T12:05:41.353Z,6.85
2023-01-23T12:09:16.721Z,8.07
2023-01-23T12:12:36.021Z,8.20
2023-01-23T12:15:40.152Z,7.80
2023-01-23T12:19:40.986Z,7.28
2023-01-23T12:22:22.867Z,6.95
2023-01-23T12:25:20.057Z,8.23
2023-01-23T12:27:57.855Z,7.95
2023-01-23T12:30:58.624Z,10.50
2023-01-23T12:33:59.669Z,8.13
2023-01-23T12:37:30.754Z,8.57
2023-01-23T12:40:13.000Z,10.35
2023-01-23T12:43:14.736Z,10.25
2023-01-23T12:45:59.461Z,11.68
2023-01-23T12:48:45.076Z,8.23
2023-01-23T12:51:36.558Z,9.07
2023-01-23T12:54:17.572Z,8.95
2023-01-23T12:56:46.191Z,12.40
2023-01-23T13:00:08.907Z,12.27
2023-01-23T13:03:22.947Z,12.10
2023-01-23T13:05:59.334Z,9.95
2023-01-23T13:09:28.054Z,12.02
2023-01-23T13:12:25.170Z,9.73
2023-01-23T13:15:30.934Z,12.25
2023-01-23T13:18:05.603Z,12.27
2023-01-23T13:21:11.040Z,15.23
2023-01-23T13:23:38.457Z,10.75
2023-01-23T13:26:23.191Z,11.70
2023-01-23T13:29:04.276Z,13.23
2023-01-23T13:31:47.536Z,11.48
2023-01-23T13:34:18.049Z,14.98
2023-01-23T13:37:15.185Z,10.07
2023-01-23T14:31:45.660Z,12.50
2023-01-23T14:34:24.410Z,14.40
2023-01-23T14:37:10.738Z,13.35
2023-01-23T14:39:39.784Z,13.55
2023-01-23T14:42:11.546Z,13.73
